createdAt,value
2022-08-17T00:02:09.848Z,20.70
2022-08-17T00:04:52.288Z,20.60
2022-08-17T00:07:18.988Z,20.60
2022-08-17T00:09:45.740Z,20.60
2022-08-17T00:12:43.683Z,20.60
2022-08-17T00:15:00.001Z,20.50
2022-08-17T00:17:26.906Z,20.50
2022-08-17T00:19:53.597Z,20.50
2022-08-17T00:22:31.501Z,20.40
2022-08-17T00:25:03.463Z,20.40
2022-08-17T00:27:30.162Z,20.40
2022-08-17T00:29:56.862Z,20.40
2022-08-17T00:33:11.652Z,20.30
2022-08-17T00:35:12.543Z,20.30
2022-08-17T00:37:40.181Z,20.30
2022-08-17T00:40:09.066Z,20.30
2022-08-17T00:42:36.548Z,20.30
2022-08-17T00:45:05.940Z,20.20
2022-08-17T00:47:33.168Z,20.20
2022-08-17T00:50:00.227Z,20.20
2022-08-17T00:52:35.288Z,20.20
2022-08-17T00:55:04.247Z,20.20
2022-08-17T00:57:35.252Z,20.10
2022-08-17T01:00:12.610Z,20.10
2022-08-17T01:02:43.180Z,20.10
2022-08-17T01:05:23.908Z,20.10
2022-08-17T01:07:52.876Z,20.00
2022-08-17T01:10:58.766Z,20.00
2022-08-17T01:13:24.427Z,20.00
2022-08-17T01:16:01.852Z,20.00
2022-08-17T01:18:29.213Z,20.00
2022-08-17T01:20:58.550Z,19.90
2022-08-17T01:23:28.796Z,19.90
2022-08-17T01:25:59.078Z,19.90
2022-08-17T01:28:53.095Z,19.80
2022-08-17T01:31:17.822Z,19.80
2022-08-17T01:33:44.590Z,19.80
2022-08-17T01:36:11.343Z,19.80
2022-08-17T01:38:38.849Z,19.80
2022-08-17T01:41:11.749Z,19.80
2022-08-17T01:44:02.089Z,19.70
2022-08-17T01:46:33.411Z,19.70
2022-08-17T01:49:01.136Z,19.70
2022-08-17T01:51:32.726Z,19.70
2022-08-17T01:54:05.253Z,19.70
2022-08-17T01:56:33.965Z,19.70
2022-08-17T01:59:00.827Z,19.60
2022-08-17T02:01:30.006Z,19.60
2022-08-17T02:04:00.426Z,19.60
2022-08-17T02:06:29.829Z,19.60
2022-08-17T02:09:02.954Z,19.60
2022-08-17T02:11:33.316Z,19.60
2022-08-17T02:14:02.817Z,19.60
2022-08-17T02:16:37.575Z,19.60
2022-08-17T02:19:07.921Z,19.60
2022-08-17T02:21:36.389Z,19.60
2022-08-17T02:24:04.464Z,19.60
2022-08-17T02:26:31.301Z,19.50
2022-08-17T02:28:58.050Z,19.50
2022-08-17T02:31:24.810Z,19.60
2022-08-17T02:34:00.316Z,19.50
2022-08-17T02:36:32.191Z,19.50
2022-08-17T02:39:04.618Z,19.50
2022-08-17T02:41:31.502Z,19.50
2022-08-17T02:43:58.603Z,19.40
2022-08-17T02:46:25.938Z,19.40
2022-08-17T02:48:52.671Z,19.40
2022-08-17T02:51:19.480Z,19.30
2022-08-17T02:53:46.755Z,19.30
2022-08-17T02:56:13.917Z,19.30
2022-08-17T02:58:40.755Z,19.30
2022-08-17T03:01:09.735Z,19.30
2022-08-17T03:03:37.505Z,19.30
2022-08-17T03:06:05.922Z,19.30
2022-08-17T03:08:32.653Z,19.20
2022-08-17T03:10:59.686Z,19.20
2022-08-17T03:13:27.534Z,19.20
2022-08-17T03:15:54.384Z,19.20
2022-08-17T03:18:25.122Z,19.20
2022-08-17T03:20:58.377Z,19.20
2022-08-17T03:23:27.257Z,19.20
2022-08-17T03:25:54.994Z,19.10
2022-08-17T03:28:23.394Z,19.10
2022-08-17T03:30:51.233Z,19.10
2022-08-17T03:33:19.131Z,19.10
2022-08-17T03:35:46.313Z,19.00
2022-08-17T03:38:15.175Z,19.00
2022-08-17T03:40:56.971Z,19.00
2022-08-17T03:43:26.921Z,19.00
2022-08-17T03:46:28.143Z,18.90
2022-08-17T03:49:17.850Z,18.90
2022-08-17T03:52:03.053Z,18.90
2022-08-17T03:54:48.206Z,18.90
2022-08-17T03:57:14.933Z,18.80
2022-08-17T03:59:41.845Z,18.80
2022-08-17T04:02:25.576Z,18.80
2022-08-17T04:04:52.777Z,18.80
2022-08-17T04:07:21.046Z,18.70
2022-08-17T04:09:48.437Z,18.70
2022-08-17T04:12:17.861Z,18.70
2022-08-17T04:14:53.562Z,18.70
2022-08-17T04:17:27.236Z,18.60
2022-08-17T04:19:55.606Z,18.60
2022-08-17T04:22:32.737Z,18.60
2022-08-17T04:25:18.045Z,18.60
2022-08-17T04:27:44.859Z,18.60
2022-08-17T04:30:12.451Z,18.60
2022-08-17T04:33:07.346Z,18.60
2022-08-17T04:35:46.113Z,18.60
2022-08-17T04:38:15.748Z,18.70
2022-08-17T04:41:02.058Z,18.60
2022-08-17T04:43:30.967Z,18.70
2022-08-17T04:46:04.650Z,18.60
2022-08-17T04:48:37.767Z,18.70
2022-08-17T04:51:09.570Z,18.70
2022-08-17T04:53:36.917Z,18.70
2022-08-17T04:56:04.134Z,18.70
2022-08-17T04:58:31.071Z,18.80
2022-08-17T05:00:57.999Z,18.80
2022-08-17T05:03:24.891Z,18.90
2022-08-17T05:05:51.703Z,18.90
2022-08-17T05:08:20.274Z,19.00
2022-08-17T05:10:47.638Z,19.10
2022-08-17T05:13:18.853Z,19.10
2022-08-17T05:15:47.884Z,19.20
2022-08-17T05:18:16.073Z,19.20
2022-08-17T05:20:43.655Z,19.30
2022-08-17T05:23:13.660Z,19.40
2022-08-17T05:25:47.338Z,19.50
2022-08-17T05:28:52.431Z,19.60
2022-08-17T05:35:59.852Z,19.70
2022-08-17T05:45:54.916Z,19.90
2022-08-17T05:49:20.868Z,20.00
2022-08-17T05:52:08.861Z,20.00
2022-08-17T05:59:28.009Z,20.10
2022-08-17T06:03:12.534Z,20.20
2022-08-17T06:06:09.233Z,20.30
2022-08-17T06:08:42.493Z,20.30
2022-08-17T06:11:23.928Z,20.40
2022-08-17T06:14:32.883Z,20.40
2022-08-17T06:17:08.252Z,20.50
2022-08-17T06:19:54.592Z,20.50
2022-08-17T06:22:26.324Z,20.60
2022-08-17T06:25:01.240Z,20.70
2022-08-17T06:27:46.814Z,20.80
2022-08-17T06:30:27.627Z,20.80
2022-08-17T06:32:59.605Z,20.90
2022-08-17T06:35:37.813Z,21.00
2022-08-17T06:38:37.916Z,21.10
2022-08-17T06:41:45.587Z,21.10
2022-08-17T06:44:49.923Z,21.30
2022-08-17T06:47:28.756Z,21.30
2022-08-17T06:50:07.678Z,21.40
2022-08-17T06:52:46.860Z,21.50
2022-08-17T06:55:38.145Z,21.60
2022-08-17T06:58:15.872Z,21.70
2022-08-17T07:00:47.272Z,21.70
2022-08-17T07:03:30.035Z,21.80
2022-08-17T07:06:20.801Z,21.90
2022-08-17T07:08:57.604Z,22.00
2022-08-17T07:11:34.069Z,22.00
2022-08-17T07:14:25.267Z,22.10
2022-08-17T07:16:55.370Z,22.20
2022-08-17T07:19:26.003Z,22.20
2022-08-17T07:22:15.797Z,22.30
2022-08-17T07:25:00.759Z,22.30
2022-08-17T07:27:35.661Z,22.40
2022-08-17T07:30:10.337Z,22.40
2022-08-17T07:32:47.577Z,22.50
2022-08-17T07:35:16.565Z,22.60
2022-08-17T07:37:53.166Z,22.70
2022-08-17T07:40:36.052Z,22.70
2022-08-17T07:43:05.133Z,22.80
2022-08-17T07:49:11.031Z,22.90
2022-08-17T07:51:48.602Z,23.00
2022-08-17T07:54:15.798Z,23.00
2022-08-17T07:56:56.575Z,23.00
2022-08-17T08:00:04.102Z,23.10
2022-08-17T08:02:54.665Z,23.10
2022-08-17T08:05:49.493Z,23.20
2022-08-17T08:08:32.434Z,23.20
2022-08-17T08:11:03.689Z,23.30
2022-08-17T08:13:35.369Z,23.30
2022-08-17T08:16:27.693Z,23.30
2022-08-17T08:18:59.745Z,23.30
2022-08-17T08:21:56.731Z,23.40
2022-08-17T08:25:01.243Z,23.40
2022-08-17T08:27:40.225Z,23.40
2022-08-17T08:30:14.483Z,23.40
2022-08-17T08:33:01.578Z,23.40
2022-08-17T08:35:55.191Z,23.40
2022-08-17T08:38:47.414Z,23.50
2022-08-17T08:41:26.366Z,23.50
2022-08-17T08:44:06.517Z,23.40
2022-08-17T08:46:59.963Z,23.50
2022-08-17T08:50:08.471Z,23.40
2022-08-17T08:53:03.105Z,23.40
2022-08-17T08:55:48.518Z,23.40
2022-08-17T08:58:36.294Z,23.50
2022-08-17T09:01:32.415Z,23.40
2022-08-17T09:04:24.718Z,23.40
2022-08-17T09:07:01.648Z,23.40
2022-08-17T09:09:59.374Z,23.40
2022-08-17T09:13:13.816Z,23.50
2022-08-17T09:15:48.024Z,23.50
2022-08-17T09:19:00.223Z,23.60
2022-08-17T09:21:55.876Z,23.60
2022-08-17T09:24:36.193Z,23.60
2022-08-17T09:27:25.898Z,23.50
2022-08-17T09:30:04.054Z,23.50
2022-08-17T09:32:49.067Z,23.40
2022-08-17T09:35:59.678Z,23.40
2022-08-17T09:38:36.901Z,23.30
2022-08-17T09:42:01.080Z,23.30
2022-08-17T09:44:37.444Z,23.20
2022-08-17T09:47:30.662Z,23.20
2022-08-17T09:51:03.314Z,23.10
2022-08-17T09:53:15.486Z,23.10
2022-08-17T09:56:33.927Z,23.00
2022-08-17T09:59:25.007Z,23.00
2022-08-17T10:02:21.010Z,22.90
2022-08-17T10:05:18.802Z,22.90
2022-08-17T10:07:57.589Z,22.90
2022-08-17T10:10:52.502Z,22.80
2022-08-17T10:13:53.762Z,22.90
2022-08-17T10:20:27.120Z,22.90
2022-08-17T11:00:08.321Z,22.60
2022-08-17T11:11:50.324Z,22.30
2022-08-17T11:14:30.564Z,22.30
2022-08-17T11:21:49.131Z,22.20
2022-08-17T11:24:31.505Z,22.10
2022-08-17T11:27:15.285Z,22.00
2022-08-17T11:30:05.568Z,22.00
2022-08-17T11:36:38.923Z,22.00
2022-08-17T11:39:28.568Z,22.00
2022-08-17T11:42:42.564Z,22.00
2022-08-17T11:45:46.651Z,22.10
2022-08-17T11:48:58.148Z,22.10
2022-08-17T11:52:01.182Z,22.20
2022-08-17T11:54:33.450Z,22.30
2022-08-17T11:57:21.525Z,22.30
2022-08-17T11:59:48.412Z,22.40
2022-08-17T12:02:36.175Z,22.40
2022-08-17T12:05:18.001Z,22.50
2022-08-17T12:07:52.403Z,22.50
2022-08-17T12:10:31.995Z,22.60
2022-08-17T12:13:02.321Z,22.70
2022-08-17T12:15:36.396Z,22.70
2022-08-17T12:18:04.933Z,22.80
2022-08-17T12:20:56.934Z,22.90
2022-08-17T12:23:35.426Z,23.00
2022-08-17T12:26:20.521Z,23.00
2022-08-17T12:28:50.103Z,23.10
2022-08-17T12:31:36.615Z,23.10
2022-08-17T12:34:06.025Z,23.10
2022-08-17T12:36:38.595Z,23.10
2022-08-17T12:42:15.658Z,23.10
2022-08-17T12:54:50.199Z,23.30
2022-08-17T12:57:36.377Z,23.50
2022-08-17T13:01:14.298Z,23.70
2022-08-17T13:08:00.393Z,24.10
2022-08-17T13:10:59.944Z,24.30
2022-08-17T13:18:04.744Z,24.40
2022-08-17T13:21:07.961Z,24.50
2022-08-17T13:24:07.638Z,24.50
2022-08-17T13:27:44.407Z,24.60
2022-08-17T13:30:12.576Z,24.70
2022-08-17T13:32:50.016Z,24.80
2022-08-17T13:36:28.933Z,24.90
2022-08-17T13:41:53.599Z,25.00
2022-08-17T13:44:53.296Z,25.10
2022-08-17T13:47:30.698Z,25.10
2022-08-17T13:49:58.832Z,25.20
2022-08-17T13:58:19.149Z,25.30
2022-08-17T14:05:00.603Z,25.60
2022-08-17T14:15:55.224Z,25.90
2022-08-17T14:21:27.248Z,26.20
2022-08-17T14:24:29.130Z,26.40
2022-08-17T14:28:08.148Z,26.50
2022-08-17T14:30:37.498Z,26.80
2022-08-17T14:33:39.348Z,26.90
2022-08-17T14:36:18.567Z,26.90
2022-08-17T14:43:17.362Z,26.90
2022-08-17T14:46:18.250Z,26.90
2022-08-17T14:49:04.628Z,27.00
2022-08-17T14:51:43.573Z,27.20
2022-08-17T14:58:45.802Z,27.30
2022-08-17T15:01:24.694Z,27.40
2022-08-17T15:08:28.113Z,27.40
2022-08-17T15:12:13.544Z,27.40
2022-08-17T15:15:10.469Z,27.30
2022-08-17T15:18:16.009Z,27.10
2022-08-17T15:20:44.526Z,27.00
2022-08-17T15:23:15.815Z,26.90
2022-08-17T15:25:43.774Z,26.90
2022-08-17T15:28:13.147Z,27.00
2022-08-17T15:30:44.821Z,27.00
2022-08-17T15:33:16.758Z,27.00
2022-08-17T15:35:43.807Z,27.20
2022-08-17T15:38:13.012Z,27.40
2022-08-17T15:40:44.386Z,27.60
2022-08-17T15:43:17.672Z,27.90
2022-08-17T15:45:58.661Z,28.00
2022-08-17T15:48:44.718Z,27.90
2022-08-17T15:51:24.052Z,27.70
2022-08-17T15:53:56.822Z,27.50
2022-08-17T15:56:25.878Z,27.40
2022-08-17T15:58:54.773Z,27.20
2022-08-17T16:02:22.363Z,27.10
2022-08-17T16:04:30.184Z,27.00
2022-08-17T16:07:06.966Z,26.90
2022-08-17T16:09:33.999Z,26.90
2022-08-17T16:12:12.923Z,26.80
2022-08-17T16:14:39.952Z,26.80
2022-08-17T16:17:38.918Z,26.70
2022-08-17T16:19:55.690Z,26.70
2022-08-17T16:22:44.082Z,26.60
2022-08-17T16:25:23.407Z,26.60
2022-08-17T16:28:10.745Z,26.60
2022-08-17T16:30:38.301Z,26.50
2022-08-17T16:33:05.803Z,26.40
2022-08-17T16:35:32.876Z,26.40
2022-08-17T16:38:09.638Z,26.30
2022-08-17T16:40:38.168Z,26.30
2022-08-17T16:43:10.604Z,26.30
2022-08-17T16:45:40.678Z,26.30
2022-08-17T16:48:09.693Z,26.30
2022-08-17T16:50:40.436Z,26.20
2022-08-17T16:53:10.880Z,26.20
2022-08-17T16:55:38.797Z,26.20
2022-08-17T16:58:06.927Z,26.10
2022-08-17T17:00:34.940Z,26.00
2022-08-17T17:03:19.754Z,26.00
2022-08-17T17:06:08.130Z,25.90
2022-08-17T17:08:35.112Z,25.90
2022-08-17T17:11:24.871Z,25.80
2022-08-17T17:14:02.190Z,25.70
2022-08-17T17:16:29.217Z,25.70
2022-08-17T17:19:14.873Z,25.70
2022-08-17T17:21:52.953Z,25.60
2022-08-17T17:24:32.163Z,25.60
2022-08-17T17:27:08.270Z,25.50
2022-08-17T17:29:57.681Z,25.50
2022-08-17T17:32:50.671Z,25.50
2022-08-17T17:35:32.354Z,25.40
2022-08-17T17:58:14.181Z,25.10
2022-08-17T18:05:37.303Z,25.00
2022-08-17T18:19:50.394Z,24.70
2022-08-17T18:23:03.854Z,24.70
2022-08-17T18:26:08.912Z,24.70
2022-08-17T18:29:14.330Z,24.60
2022-08-17T18:31:47.407Z,24.50
2022-08-17T18:34:47.218Z,24.50
2022-08-17T18:37:53.933Z,24.50
2022-08-17T18:52:12.315Z,24.30
2022-08-17T19:10:47.417Z,24.20
2022-08-17T19:13:40.716Z,24.10
2022-08-17T19:16:27.321Z,24.10
2022-08-17T19:19:14.033Z,24.10
2022-08-17T19:21:46.315Z,24.00
2022-08-17T19:24:24.526Z,24.00
2022-08-17T19:27:14.010Z,24.00
2022-08-17T19:30:07.630Z,23.90
2022-08-17T19:32:36.011Z,23.90
2022-08-17T19:35:08.069Z,23.90
2022-08-17T19:37:50.032Z,23.90
2022-08-17T19:40:54.694Z,23.80
2022-08-17T19:43:48.095Z,23.80
2022-08-17T19:46:30.158Z,23.80
2022-08-17T19:49:14.622Z,23.80
2022-08-17T19:51:58.111Z,23.80
2022-08-17T19:58:43.267Z,23.70
2022-08-17T20:02:03.279Z,23.70
2022-08-17T20:06:10.979Z,23.70
2022-08-17T20:14:07.870Z,23.60
2022-08-17T20:16:36.019Z,23.60
2022-08-17T20:34:33.416Z,23.40
2022-08-17T20:37:22.867Z,23.40
2022-08-17T20:39:49.610Z,23.30
2022-08-17T20:42:22.377Z,23.30
2022-08-17T20:44:52.854Z,23.30
2022-08-17T20:47:55.344Z,23.30
2022-08-17T20:50:32.997Z,23.30
2022-08-17T20:53:02.390Z,23.20
2022-08-17T20:55:39.345Z,23.30
2022-08-17T20:58:36.627Z,23.20
2022-08-17T21:01:13.151Z,23.20
2022-08-17T21:03:50.460Z,23.20
2022-08-17T21:06:21.361Z,23.20
2022-08-17T21:08:57.652Z,23.10
2022-08-17T21:12:03.155Z,23.10
2022-08-17T21:14:58.065Z,23.10
2022-08-17T21:17:48.333Z,23.20
2022-08-17T21:20:34.597Z,23.10
2022-08-17T21:23:27.886Z,23.10
2022-08-17T21:26:20.483Z,23.10
2022-08-17T21:29:30.246Z,23.10
2022-08-17T21:31:59.557Z,23.00
2022-08-17T21:34:29.538Z,23.00
2022-08-17T21:37:23.484Z,23.00
2022-08-17T21:40:01.107Z,23.00
2022-08-17T21:42:34.582Z,23.00
2022-08-17T21:45:27.401Z,23.00
2022-08-17T21:48:09.372Z,23.00
2022-08-17T21:50:36.905Z,23.00
2022-08-17T21:53:05.319Z,23.00
2022-08-17T21:55:34.163Z,23.00
2022-08-17T21:58:14.586Z,22.90
2022-08-17T22:00:44.445Z,22.90
2022-08-17T22:03:30.280Z,22.90
2022-08-17T22:05:57.044Z,22.90
2022-08-17T22:08:25.262Z,22.90
2022-08-17T22:11:00.754Z,22.80
2022-08-17T22:13:30.633Z,22.80
2022-08-17T22:16:28.629Z,22.80
2022-08-17T22:18:57.889Z,22.80
2022-08-17T22:21:25.344Z,22.70
2022-08-17T22:24:15.429Z,22.60
2022-08-17T22:27:03.455Z,22.50
2022-08-17T22:29:53.341Z,22.40
2022-08-17T22:32:38.158Z,22.30
2022-08-17T22:35:29.210Z,22.20
2022-08-17T22:37:56.937Z,22.10
2022-08-17T22:40:26.335Z,22.10
2022-08-17T22:42:53.706Z,22.10
2022-08-17T22:45:20.577Z,22.00
2022-08-17T22:47:48.884Z,22.00
2022-08-17T22:50:35.914Z,21.90
2022-08-17T22:53:37.006Z,21.80
2022-08-17T22:56:23.312Z,21.80
2022-08-17T22:59:17.093Z,21.70
2022-08-17T23:01:46.071Z,21.70
2022-08-17T23:04:35.782Z,21.70
2022-08-17T23:07:02.568Z,21.70
2022-08-17T23:09:29.840Z,21.60
2022-08-17T23:11:58.513Z,21.60
2022-08-17T23:14:31.575Z,21.60
2022-08-17T23:17:01.971Z,21.60
2022-08-17T23:19:31.656Z,21.50
2022-08-17T23:21:59.583Z,21.50
2022-08-17T23:24:29.713Z,21.50
2022-08-17T23:26:58.955Z,21.50
2022-08-17T23:29:29.241Z,21.50
2022-08-17T23:31:59.625Z,21.40
2022-08-17T23:34:27.992Z,21.40
2022-08-17T23:36:55.625Z,21.40
2022-08-17T23:39:27.370Z,21.30
2022-08-17T23:41:58.196Z,21.30
2022-08-17T23:44:25.724Z,21.30
2022-08-17T23:46:53.211Z,21.20
2022-08-17T23:49:20.229Z,21.20
2022-08-17T23:51:48.592Z,21.10
2022-08-17T23:54:31.378Z,21.10
2022-08-17T23:56:58.154Z,21.10
2022-08-17T23:59:26.876Z,21.00
